Time;durP1;ratioP1;P1;durP2;ratioP2;P2;SDS_P1;SDS_P2;PMS_P1;PMS_P2;Temp;Humidity;BMP_temperature;BMP_pressure;BME280_temperature;BME280_humidity;BME280_pressure;Samples;Min_cycle;Max_cycle;Signal;HPM_P1;HPM_P2
2023/08/04 00:01:58;;;;;;;5.15;1.00;;;22.20;1.00;;;;;;4920992;29;20040;-44
2023/08/04 00:04:25;;;;;;;2.00;0.55;;;22.20;1.00;;;;;;4922252;29;20079;-40
2023/08/04 00:06:52;;;;;;;3.08;0.80;;;22.20;1.00;;;;;;4890652;29;20044;-42
2023/08/04 00:09:19;;;;;;;1.88;0.75;;;22.20;1.00;;;;;;4922083;29;20068;-41
2023/08/04 00:11:46;;;;;;;2.78;0.95;;;22.20;1.00;;;;;;4918634;29;20479;-42
2023/08/04 00:14:13;;;;;;;2.80;0.85;;;22.20;1.00;;;;;;4915740;29;20047;-42
2023/08/04 00:16:40;;;;;;;2.70;0.90;;;22.20;1.00;;;;;;4922210;29;20493;-41
2023/08/04 00:19:07;;;;;;;2.40;0.70;;;22.20;1.00;;;;;;4921884;29;20048;-46
2023/08/04 00:21:34;;;;;;;3.75;1.08;;;22.20;1.00;;;;;;4922001;29;20052;-42
2023/08/04 00:24:00;;;;;;;2.17;0.77;;;22.20;1.00;;;;;;4921923;29;20052;-42
2023/08/04 00:26:27;;;;;;;1.75;0.98;;;22.20;1.00;;;;;;4897248;29;20076;-41
2023/08/04 00:28:54;;;;;;;1.85;0.95;;;22.20;1.00;;;;;;4913911;29;20067;-42
2023/08/04 00:31:21;;;;;;;1.67;0.90;;;22.20;1.00;;;;;;4921418;29;20504;-43
2023/08/04 00:33:48;;;;;;;2.05;0.73;;;22.20;1.00;;;;;;4894495;29;20079;-40
2023/08/04 00:36:15;;;;;;;1.00;0.50;;;22.20;1.00;;;;;;4899861;29;20047;-42
2023/08/04 00:38:41;;;;;;;1.98;0.45;;;22.20;1.00;;;;;;4903992;29;20058;-40
2023/08/04 00:41:09;;;;;;;1.48;0.43;;;22.20;1.00;;;;;;4904125;29;20040;-44
2023/08/04 00:43:36;;;;;;;1.80;0.60;;;22.20;1.00;;;;;;4904357;29;20452;-42
2023/08/04 00:46:03;;;;;;;2.80;0.70;;;22.10;1.00;;;;;;4899728;29;20057;-45
2023/08/04 00:48:30;;;;;;;3.28;1.02;;;22.10;1.00;;;;;;4893649;29;20048;-43
2023/08/04 00:50:57;;;;;;;3.92;0.80;;;22.20;1.00;;;;;;4921417;29;20059;-42
2023/08/04 00:53:24;;;;;;;2.97;0.75;;;22.10;1.00;;;;;;4904364;29;20466;-41
2023/08/04 00:55:51;;;;;;;2.13;0.70;;;22.10;1.00;;;;;;4911315;29;20049;-41
2023/08/04 00:58:18;;;;;;;3.17;0.93;;;22.10;1.00;;;;;;4899660;29;20603;-44
2023/08/04 01:00:45;;;;;;;2.78;0.80;;;22.10;1.00;;;;;;4904469;29;20592;-41
2023/08/04 01:03:12;;;;;;;1.77;0.98;;;22.10;1.00;;;;;;4921495;29;20098;-46
2023/08/04 01:06:21;;;;;;;1.45;0.73;;;22.10;1.00;;;;;;4896724;29;20057;-44
2023/08/04 01:09:01;;;;;;;2.80;0.60;;;22.10;1.00;;;;;;4894301;29;20312;-41
2023/08/04 01:11:34;;;;;;;1.40;0.57;;;22.10;1.00;;;;;;4906466;29;20566;-43
2023/08/04 01:14:02;;;;;;;2.45;0.65;;;22.10;1.00;;;;;;4911779;29;20119;-43
2023/08/04 01:16:30;;;;;;;1.98;0.70;;;22.10;1.00;;;;;;4921555;29;20107;-43
2023/08/04 01:19:00;;;;;;;2.20;1.38;;;22.10;1.00;;;;;;4916899;29;20071;-42
2023/08/04 01:21:27;;;;;;;1.70;0.70;;;22.10;1.00;;;;;;4925251;29;20377;-43
2023/08/04 01:23:54;;;;;;;4.00;0.75;;;22.10;1.00;;;;;;4900614;29;20052;-41
2023/08/04 01:26:22;;;;;;;0.90;0.40;;;22.10;1.00;;;;;;4901492;29;20061;-44
2023/08/04 01:28:49;;;;;;;0.65;0.35;;;22.10;1.00;;;;;;4906025;29;20559;-41
2023/08/04 01:31:17;;;;;;;3.72;1.40;;;22.10;1.00;;;;;;4892877;29;20048;-43
2023/08/04 01:33:44;;;;;;;2.55;0.90;;;22.10;1.00;;;;;;4916990;29;20048;-42
2023/08/04 01:36:11;;;;;;;2.45;0.70;;;22.10;1.00;;;;;;4908036;29;20048;-43
2023/08/04 01:38:38;;;;;;;2.45;0.40;;;22.10;1.00;;;;;;4892426;29;20057;-41
2023/08/04 01:41:05;;;;;;;1.00;0.55;;;22.10;1.00;;;;;;4907590;29;20408;-40
2023/08/04 01:43:32;;;;;;;1.40;0.75;;;22.10;1.00;;;;;;4917098;29;20559;-43
2023/08/04 01:45:59;;;;;;;1.63;0.50;;;22.10;1.00;;;;;;4899739;29;20048;-42
2023/08/04 01:48:27;;;;;;;1.63;0.65;;;22.10;1.00;;;;;;4907747;29;20103;-41
2023/08/04 01:50:54;;;;;;;2.17;0.60;;;22.10;1.00;;;;;;4907830;29;20044;-43
2023/08/04 01:53:21;;;;;;;2.25;0.60;;;22.00;1.00;;;;;;4916850;29;20077;-43
2023/08/04 01:55:48;;;;;;;2.80;0.77;;;22.00;1.00;;;;;;4892241;29;20055;-45
2023/08/04 01:58:15;;;;;;;1.30;0.50;;;22.00;1.00;;;;;;4918570;29;20052;-42
2023/08/04 02:00:42;;;;;;;0.95;0.60;;;22.00;1.00;;;;;;4921856;29;20055;-42
2023/08/04 02:03:09;;;;;;;2.22;0.85;;;22.00;1.00;;;;;;4907674;29;20048;-43
2023/08/04 02:05:36;;;;;;;1.63;0.52;;;22.00;1.00;;;;;;4907478;29;20056;-44
2023/08/04 02:08:03;;;;;;;2.08;0.70;;;22.00;1.00;;;;;;4904792;29;20045;-43
2023/08/04 02:10:31;;;;;;;1.23;0.35;;;22.00;1.00;;;;;;4896764;29;20040;-43
2023/08/04 02:12:58;;;;;;;1.33;0.68;;;22.00;1.00;;;;;;4921260;29;20051;-44
2023/08/04 02:15:24;;;;;;;1.30;0.52;;;22.00;1.00;;;;;;4913325;29;20052;-45
2023/08/04 02:17:51;;;;;;;1.55;0.60;;;22.00;1.00;;;;;;4906372;29;20135;-41
2023/08/04 02:20:18;;;;;;;1.02;0.55;;;22.00;1.00;;;;;;4909749;29;20059;-42
2023/08/04 02:22:45;;;;;;;4.53;0.60;;;22.00;1.00;;;;;;4917143;29;20400;-42
2023/08/04 02:25:12;;;;;;;1.42;0.80;;;22.00;1.00;;;;;;4918593;29;20048;-41
2023/08/04 02:27:39;;;;;;;4.43;0.95;;;22.00;1.00;;;;;;4910832;29;20063;-41
2023/08/04 02:30:06;;;;;;;1.45;0.68;;;22.00;1.00;;;;;;4918529;29;20056;-42
2023/08/04 02:32:33;;;;;;;2.40;0.73;;;22.00;1.00;;;;;;4909716;29;20132;-42
2023/08/04 02:35:00;;;;;;;1.52;0.50;;;22.00;1.00;;;;;;4901383;29;20087;-41
2023/08/04 02:37:27;;;;;;;2.20;0.98;;;22.00;1.00;;;;;;4925992;29;20051;-41
2023/08/04 02:39:54;;;;;;;1.85;0.68;;;22.00;1.00;;;;;;4925529;29;20075;-41
2023/08/04 02:42:21;;;;;;;3.45;0.65;;;22.00;1.00;;;;;;4918366;29;20044;-42
2023/08/04 02:44:54;;;;;;;3.95;1.08;;;22.00;1.00;;;;;;4925871;29;20051;-41
2023/08/04 02:47:22;;;;;;;2.20;0.57;;;22.00;1.00;;;;;;4926130;29;20051;-41
2023/08/04 02:49:49;;;;;;;2.70;1.00;;;22.00;1.00;;;;;;4925849;29;20123;-42
2023/08/04 02:52:16;;;;;;;0.80;0.40;;;22.00;1.00;;;;;;4909369;29;20504;-38
2023/08/04 02:54:43;;;;;;;1.13;0.68;;;22.00;1.00;;;;;;4924663;29;20036;-40
2023/08/04 02:57:10;;;;;;;1.90;0.70;;;22.00;1.00;;;;;;4904394;29;20055;-39
2023/08/04 02:59:37;;;;;;;1.50;0.60;;;22.00;1.00;;;;;;4914156;29;20128;-39
2023/08/04 03:02:04;;;;;;;1.50;1.02;;;22.00;1.00;;;;;;4924706;29;20070;-39
2023/08/04 03:04:31;;;;;;;3.20;0.85;;;22.00;1.00;;;;;;4924770;29;20044;-38
2023/08/04 03:06:58;;;;;;;1.33;0.70;;;21.90;1.00;;;;;;4916381;29;20572;-39
2023/08/04 03:09:25;;;;;;;2.05;0.90;;;21.90;1.00;;;;;;4924829;29;20048;-40
2023/08/04 03:11:51;;;;;;;2.03;1.33;;;21.90;1.00;;;;;;4907982;29;20048;-40
2023/08/04 03:14:18;;;;;;;3.85;0.85;;;21.90;1.00;;;;;;4920045;29;20069;-40
2023/08/04 03:16:45;;;;;;;2.90;0.80;;;21.90;1.00;;;;;;4922210;29;20055;-41
2023/08/04 03:19:12;;;;;;;1.35;0.77;;;21.90;1.00;;;;;;4917606;29;20063;-40
2023/08/04 03:21:39;;;;;;;1.42;0.73;;;21.90;1.00;;;;;;4908419;29;20052;-41
2023/08/04 03:24:07;;;;;;;3.50;0.95;;;21.90;1.00;;;;;;4916873;29;20040;-41
2023/08/04 03:26:33;;;;;;;4.43;1.02;;;21.90;1.00;;;;;;4924683;29;20411;-43
2023/08/04 03:29:00;;;;;;;2.42;0.85;;;21.90;1.00;;;;;;4924215;29;20127;-39
2023/08/04 03:31:27;;;;;;;2.38;0.77;;;21.90;1.00;;;;;;4924344;29;20104;-39
2023/08/04 03:33:54;;;;;;;1.92;0.75;;;21.90;1.00;;;;;;4916441;29;20083;-40
2023/08/04 03:36:21;;;;;;;5.40;1.33;;;21.90;1.00;;;;;;4924577;29;20048;-40
2023/08/04 03:38:48;;;;;;;3.25;0.93;;;21.90;1.00;;;;;;4925088;29;20059;-40
2023/08/04 03:41:14;;;;;;;3.80;1.00;;;21.90;1.00;;;;;;4920709;29;20476;-40
2023/08/04 03:43:41;;;;;;;2.47;1.25;;;21.90;1.00;;;;;;4920683;29;20048;-40
2023/08/04 03:46:08;;;;;;;1.77;0.95;;;21.90;1.00;;;;;;4900422;29;20043;-41
2023/08/04 03:48:35;;;;;;;2.30;1.88;;;21.90;1.00;;;;;;4916486;29;20048;-41
2023/08/04 03:51:02;;;;;;;4.82;1.00;;;21.90;1.00;;;;;;4924581;29;20071;-41
2023/08/04 03:53:28;;;;;;;2.42;0.95;;;21.90;1.00;;;;;;4917200;29;20099;-41
2023/08/04 03:55:55;;;;;;;4.53;0.77;;;21.90;1.00;;;;;;4924084;29;20040;-41
2023/08/04 03:58:22;;;;;;;1.98;1.02;;;21.90;1.00;;;;;;4919407;29;20041;-42
2023/08/04 04:00:49;;;;;;;2.65;0.93;;;21.90;1.00;;;;;;4913951;29;20040;-41
2023/08/04 04:03:16;;;;;;;2.25;0.88;;;21.90;1.00;;;;;;4900557;29;20063;-40
2023/08/04 04:05:42;;;;;;;1.65;0.77;;;21.90;1.00;;;;;;4924504;29;20104;-42
2023/08/04 04:08:09;;;;;;;2.17;0.60;;;21.90;1.00;;;;;;4918455;29;20044;-40
2023/08/04 04:10:36;;;;;;;1.73;0.77;;;21.90;1.00;;;;;;4907415;29;20050;-40
2023/08/04 04:13:03;;;;;;;1.10;0.75;;;21.90;1.00;;;;;;4890339;29;20189;-41
2023/08/04 04:15:30;;;;;;;5.32;0.80;;;21.90;1.00;;;;;;4924022;29;20048;-42
2023/08/04 04:17:56;;;;;;;3.00;0.77;;;21.90;1.00;;;;;;4911503;29;20037;-41
2023/08/04 04:20:23;;;;;;;3.78;0.82;;;21.90;1.00;;;;;;4918506;29;20056;-41
2023/08/04 04:22:52;;;;;;;2.45;0.98;;;21.80;1.00;;;;;;4920931;29;20047;-41
2023/08/04 04:25:19;;;;;;;1.45;0.80;;;21.80;1.00;;;;;;4924872;29;20052;-41
2023/08/04 04:27:46;;;;;;;3.72;0.90;;;21.80;1.00;;;;;;4917894;29;20044;-41
2023/08/04 04:30:13;;;;;;;2.15;0.63;;;21.80;1.00;;;;;;4924491;29;20464;-42
2023/08/04 04:32:40;;;;;;;3.40;1.35;;;21.80;1.00;;;;;;4917694;29;20044;-40
2023/08/04 04:35:07;;;;;;;2.75;1.08;;;21.80;1.00;;;;;;4912401;29;20051;-40
2023/08/04 04:37:34;;;;;;;1.40;0.85;;;21.80;1.00;;;;;;4906566;29;20043;-41
2023/08/04 04:40:00;;;;;;;3.70;0.82;;;21.80;1.00;;;;;;4887467;29;20128;-40
2023/08/04 04:42:27;;;;;;;3.75;1.40;;;21.80;1.00;;;;;;4891936;29;20108;-43
2023/08/04 04:44:55;;;;;;;8.38;1.30;;;21.80;1.00;;;;;;4917613;29;20045;-40
2023/08/04 04:47:22;;;;;;;2.97;0.80;;;21.80;1.00;;;;;;4923659;29;20048;-41
2023/08/04 04:49:49;;;;;;;3.97;0.77;;;21.80;1.00;;;;;;4927508;29;20096;-42
2023/08/04 04:52:32;;;;;;;2.10;1.33;;;21.80;1.00;;;;;;4903329;29;20054;-40
2023/08/04 04:55:00;;;;;;;8.63;2.28;;;21.80;1.00;;;;;;4927405;29;20052;-39
2023/08/04 04:57:28;;;;;;;12.23;1.00;;;21.80;1.00;;;;;;4922085;29;20060;-41
2023/08/04 04:59:55;;;;;;;2.97;0.70;;;21.80;1.00;;;;;;4927409;29;20063;-41
2023/08/04 05:02:22;;;;;;;8.27;1.25;;;21.80;1.00;;;;;;4921135;29;20400;-41
2023/08/04 05:04:48;;;;;;;4.60;1.08;;;21.80;1.00;;;;;;4927741;29;20099;-41
2023/08/04 05:07:15;;;;;;;8.82;0.75;;;21.80;1.00;;;;;;4920163;29;20048;-40
2023/08/04 05:09:42;;;;;;;1.95;0.70;;;21.80;1.00;;;;;;4927910;29;20126;-40
2023/08/04 05:12:09;;;;;;;2.25;0.95;;;21.80;1.00;;;;;;4916130;29;20045;-40
2023/08/04 05:14:36;;;;;;;2.25;0.80;;;21.70;1.00;;;;;;4885021;29;20048;-40
2023/08/04 05:17:03;;;;;;;3.70;1.25;;;21.70;1.00;;;;;;4917643;29;20048;-41
2023/08/04 05:19:30;;;;;;;1.77;0.60;;;21.70;1.00;;;;;;4920158;29;20462;-42
2023/08/04 05:21:56;;;;;;;1.85;0.93;;;21.70;1.00;;;;;;4926841;29;20048;-42
2023/08/04 05:24:23;;;;;;;2.03;0.65;;;21.70;1.00;;;;;;4918702;29;20052;-42
2023/08/04 05:26:50;;;;;;;1.52;0.60;;;21.70;1.00;;;;;;4903332;29;20040;-41
2023/08/04 05:29:17;;;;;;;3.08;0.47;;;21.70;1.00;;;;;;4927496;29;20092;-41
2023/08/04 05:31:44;;;;;;;1.48;0.63;;;21.70;1.00;;;;;;4927634;29;20107;-41
2023/08/04 05:34:11;;;;;;;1.70;0.70;;;21.70;1.00;;;;;;4927330;29;20055;-42
2023/08/04 05:36:38;;;;;;;1.52;0.57;;;21.70;1.00;;;;;;4919212;29;20060;-41
2023/08/04 05:39:05;;;;;;;1.60;0.60;;;21.70;1.00;;;;;;4926349;29;20129;-44
2023/08/04 05:41:31;;;;;;;2.00;0.60;;;21.70;1.00;;;;;;4927807;29;20057;-41
2023/08/04 05:43:58;;;;;;;1.63;0.70;;;21.70;1.00;;;;;;4902292;29;20052;-42
2023/08/04 05:46:25;;;;;;;1.30;0.45;;;21.70;1.00;;;;;;4927647;29;20044;-41
2023/08/04 05:48:52;;;;;;;2.13;0.65;;;21.70;1.00;;;;;;4903305;29;20048;-41
2023/08/04 05:51:19;;;;;;;2.13;1.00;;;21.70;1.00;;;;;;4924262;29;20091;-41
2023/08/04 05:53:46;;;;;;;3.70;0.68;;;21.70;1.00;;;;;;4915914;29;20052;-42
2023/08/04 05:56:13;;;;;;;4.13;1.05;;;21.70;1.00;;;;;;4917236;29;20143;-40
2023/08/04 05:58:40;;;;;;;3.53;0.73;;;21.70;1.00;;;;;;4921604;29;20055;-40
2023/08/04 06:01:07;;;;;;;3.08;0.60;;;21.70;1.00;;;;;;4915724;29;20056;-41
2023/08/04 06:03:34;;;;;;;1.80;0.85;;;21.70;1.00;;;;;;4921255;29;20044;-41
2023/08/04 06:06:01;;;;;;;2.22;0.98;;;21.70;1.00;;;;;;4910358;29;20040;-40
2023/08/04 06:08:27;;;;;;;3.55;1.00;;;21.70;1.00;;;;;;4927476;29;20048;-44
2023/08/04 06:10:54;;;;;;;2.80;0.95;;;21.70;1.00;;;;;;4926984;29;20547;-41
2023/08/04 06:13:21;;;;;;;3.95;1.33;;;21.70;1.00;;;;;;4924426;29;20056;-41
2023/08/04 06:15:48;;;;;;;1.77;0.80;;;21.70;1.00;;;;;;4916206;29;20128;-40
2023/08/04 06:18:15;;;;;;;3.30;1.25;;;21.70;1.00;;;;;;4926477;29;20048;-42
2023/08/04 06:20:42;;;;;;;1.95;0.50;;;21.70;1.00;;;;;;4926054;29;20051;-41
2023/08/04 06:23:11;;;;;;;2.47;0.73;;;21.70;1.00;;;;;;4925711;29;20076;-41
2023/08/04 06:25:37;;;;;;;1.73;0.60;;;21.70;1.00;;;;;;4920269;29;20119;-44
2023/08/04 06:28:04;;;;;;;1.00;0.47;;;21.70;1.00;;;;;;4918966;29;20460;-41
2023/08/04 06:30:31;;;;;;;2.08;1.17;;;21.70;1.00;;;;;;4918748;29;20040;-41
2023/08/04 06:32:58;;;;;;;1.60;0.60;;;21.70;1.00;;;;;;4926930;29;20044;-42
2023/08/04 06:35:25;;;;;;;2.55;0.80;;;21.70;1.00;;;;;;4919518;29;20436;-41
2023/08/04 06:37:52;;;;;;;2.70;1.80;;;21.70;1.00;;;;;;4902258;29;20052;-41
2023/08/04 06:40:18;;;;;;;3.13;0.90;;;21.70;1.00;;;;;;4919570;29;20068;-41
2023/08/04 06:42:45;;;;;;;3.67;1.00;;;21.70;1.00;;;;;;4909296;29;20055;-41
2023/08/04 06:45:12;;;;;;;2.65;1.40;;;21.70;1.00;;;;;;4901964;29;20056;-43
2023/08/04 06:47:39;;;;;;;2.05;0.82;;;21.70;1.00;;;;;;4921688;29;20052;-42
2023/08/04 06:50:07;;;;;;;3.05;1.08;;;21.70;1.00;;;;;;4924150;29;20044;-41
2023/08/04 06:52:34;;;;;;;3.00;0.88;;;21.70;1.00;;;;;;4918379;29;20051;-41
2023/08/04 06:55:01;;;;;;;2.83;1.00;;;21.70;1.00;;;;;;4925995;29;20055;-42
2023/08/04 06:57:31;;;;;;;4.13;0.98;;;21.70;1.00;;;;;;4911965;29;20044;-41
2023/08/04 06:59:58;;;;;;;5.38;1.20;;;21.70;1.00;;;;;;4926082;29;20044;-42
2023/08/04 07:02:24;;;;;;;3.20;0.88;;;21.70;1.00;;;;;;4901506;29;20107;-42
2023/08/04 07:04:51;;;;;;;2.42;0.88;;;21.70;1.00;;;;;;4919858;29;20531;-41
2023/08/04 07:07:18;;;;;;;3.88;1.38;;;21.70;1.00;;;;;;4916593;29;20080;-41
2023/08/04 07:09:45;;;;;;;4.03;1.17;;;21.70;1.00;;;;;;4925653;29;20040;-41
2023/08/04 07:12:12;;;;;;;1.40;0.63;;;21.70;1.00;;;;;;4924301;29;20051;-41
2023/08/04 07:14:40;;;;;;;2.55;0.63;;;21.70;1.00;;;;;;4919131;29;20055;-41
2023/08/04 07:17:07;;;;;;;2.75;0.98;;;21.70;1.00;;;;;;4915500;29;20087;-41
2023/08/04 07:19:33;;;;;;;2.65;1.00;;;21.70;1.00;;;;;;4897804;29;20408;-42
2023/08/04 07:22:00;;;;;;;3.50;0.95;;;21.70;1.00;;;;;;4921850;29;20382;-42
2023/08/04 07:24:28;;;;;;;4.80;1.35;;;21.70;1.00;;;;;;4918036;29;20057;-41
2023/08/04 07:26:58;;;;;;;3.10;0.85;;;21.70;1.00;;;;;;4924947;29;20075;-44
2023/08/04 07:29:24;;;;;;;4.13;1.83;;;21.70;1.00;;;;;;4916177;29;20055;-42
2023/08/04 07:31:51;;;;;;;2.47;0.40;;;21.70;1.00;;;;;;4924612;29;20063;-42
2023/08/04 07:34:18;;;;;;;3.33;0.77;;;21.70;1.00;;;;;;4916381;29;20044;-39
2023/08/04 07:36:45;;;;;;;1.58;0.77;;;21.70;1.00;;;;;;4892072;29;20551;-44
2023/08/04 07:39:12;;;;;;;4.72;0.80;;;21.70;1.00;;;;;;4908009;29;20086;-39
2023/08/04 07:41:39;;;;;;;1.58;0.90;;;21.70;1.00;;;;;;4917289;29;20070;-41
2023/08/04 07:44:05;;;;;;;3.63;0.95;;;21.70;1.00;;;;;;4917307;29;20471;-40
2023/08/04 07:46:32;;;;;;;2.15;1.00;;;21.70;1.00;;;;;;4921325;29;20049;-40
2023/08/04 07:49:00;;;;;;;2.15;0.82;;;21.70;1.00;;;;;;4921790;29;20040;-41
2023/08/04 07:51:26;;;;;;;4.07;1.20;;;21.70;1.00;;;;;;4925486;29;20044;-41
2023/08/04 07:53:53;;;;;;;3.95;1.13;;;21.70;1.00;;;;;;4925462;29;20054;-41
2023/08/04 07:56:20;;;;;;;4.15;0.77;;;21.70;1.00;;;;;;4917163;29;20045;-41
2023/08/04 07:58:47;;;;;;;1.77;0.98;;;21.70;1.00;;;;;;4919573;29;20076;-41
2023/08/04 08:01:14;;;;;;;2.53;0.63;;;21.70;1.00;;;;;;4921525;29;20048;-41
2023/08/04 08:03:43;;;;;;;3.15;0.80;;;21.70;1.00;;;;;;4897417;29;20072;-43
2023/08/04 08:06:10;;;;;;;3.55;0.88;;;21.70;1.00;;;;;;4913527;29;20048;-41
2023/08/04 08:08:37;;;;;;;2.83;0.88;;;21.70;1.00;;;;;;4916236;29;20052;-41
2023/08/04 08:11:10;;;;;;;2.13;0.47;;;21.70;1.00;;;;;;4924939;29;20047;-41
2023/08/04 08:13:38;;;;;;;3.85;0.82;;;21.70;1.00;;;;;;4910637;29;20040;-43
2023/08/04 08:16:13;;;;;;;2.75;0.50;;;21.70;1.00;;;;;;4924462;29;20040;-44
2023/08/04 08:18:45;;;;;;;4.18;1.02;;;21.70;1.00;;;;;;4896310;29;20051;-41
2023/08/04 08:21:12;;;;;;;1.85;0.75;;;21.70;1.00;;;;;;4907322;29;20052;-41
2023/08/04 08:23:39;;;;;;;1.35;0.50;;;21.70;1.00;;;;;;4923260;29;20051;-40
2023/08/04 08:26:06;;;;;;;2.80;0.75;;;21.70;1.00;;;;;;4899620;29;20076;-43
2023/08/04 08:28:33;;;;;;;1.15;0.65;;;21.70;1.00;;;;;;4916083;29;20121;-41
2023/08/04 08:30:59;;;;;;;2.22;0.88;;;21.70;1.00;;;;;;4924468;29;20084;-40
2023/08/04 08:33:26;;;;;;;2.75;0.73;;;21.80;1.00;;;;;;4924058;29;20048;-41
2023/08/04 08:35:55;;;;;;;2.30;0.93;;;21.70;1.00;;;;;;4924315;29;20067;-41
2023/08/04 08:38:22;;;;;;;3.25;0.73;;;21.70;1.00;;;;;;4916596;29;20052;-40
2023/08/04 08:40:49;;;;;;;2.53;0.52;;;21.70;1.00;;;;;;4919695;29;20048;-41
2023/08/04 08:43:16;;;;;;;1.13;0.57;;;21.70;1.00;;;;;;4922546;29;20500;-40
2023/08/04 08:45:46;;;;;;;2.45;0.80;;;21.70;1.00;;;;;;4900075;29;20052;-41
2023/08/04 08:48:13;;;;;;;2.00;0.63;;;21.80;1.00;;;;;;4907689;29;20051;-43
2023/08/04 08:50:43;;;;;;;1.70;1.10;;;21.80;1.00;;;;;;4899332;29;20048;-40
2023/08/04 08:53:15;;;;;;;3.80;0.77;;;21.70;1.00;;;;;;4925033;29;20040;-41
2023/08/04 08:55:42;;;;;;;3.22;0.75;;;21.80;1.00;;;;;;4899783;29;20075;-40
2023/08/04 08:58:10;;;;;;;4.40;0.77;;;21.80;1.00;;;;;;4924906;29;20068;-41
2023/08/04 09:00:37;;;;;;;3.22;0.60;;;21.80;1.00;;;;;;4921252;29;20044;-42
2023/08/04 09:03:05;;;;;;;3.22;1.08;;;21.80;1.00;;;;;;4913113;29;20132;-40
2023/08/04 09:05:33;;;;;;;1.88;0.55;;;21.80;1.00;;;;;;4923279;29;20048;-40
2023/08/04 09:08:02;;;;;;;3.25;0.60;;;21.80;1.00;;;;;;4907875;29;20128;-40
2023/08/04 09:10:32;;;;;;;1.55;0.60;;;21.80;1.00;;;;;;4916102;29;20049;-40
2023/08/04 09:13:00;;;;;;;3.08;0.75;;;21.80;1.00;;;;;;4919276;29;20048;-40
2023/08/04 09:15:47;;;;;;;1.85;0.57;;;21.80;1.00;;;;;;4898462;29;20049;-40
2023/08/04 09:18:32;;;;;;;2.75;0.77;;;21.80;1.00;;;;;;4924403;29;20055;-40
2023/08/04 09:21:08;;;;;;;2.70;1.00;;;21.80;1.00;;;;;;4913147;29;20074;-39
2023/08/04 09:23:36;;;;;;;3.30;0.88;;;21.80;1.00;;;;;;4918975;29;20044;-40
2023/08/04 09:26:03;;;;;;;3.03;0.50;;;21.80;1.00;;;;;;4920181;29;20079;-40
2023/08/04 09:28:30;;;;;;;1.77;0.93;;;21.80;1.00;;;;;;4924909;29;20048;-39
2023/08/04 09:31:07;;;;;;;2.47;1.00;;;21.80;1.00;;;;;;4923497;29;20032;-40
2023/08/04 09:33:43;;;;;;;3.25;0.77;;;21.80;1.00;;;;;;4922069;29;20067;-41
2023/08/04 09:36:13;;;;;;;2.60;0.63;;;21.80;1.00;;;;;;4920091;29;20132;-39
2023/08/04 09:38:40;;;;;;;2.25;0.73;;;21.80;1.00;;;;;;4923793;29;20056;-41
2023/08/04 09:41:12;;;;;;;4.45;1.05;;;21.80;1.00;;;;;;4922489;29;20048;-40
2023/08/04 09:43:47;;;;;;;1.33;0.40;;;21.90;1.00;;;;;;4909938;29;20044;-41
2023/08/04 09:46:16;;;;;;;2.55;0.82;;;21.90;1.00;;;;;;4926057;29;20084;-43
2023/08/04 09:48:44;;;;;;;4.03;0.88;;;21.90;1.00;;;;;;4912486;29;20177;-41
2023/08/04 09:51:16;;;;;;;1.20;0.52;;;21.90;1.00;;;;;;4926691;29;20467;-40
2023/08/04 09:53:44;;;;;;;1.58;0.75;;;21.90;1.00;;;;;;4923617;29;20041;-45
2023/08/04 09:56:13;;;;;;;1.10;0.52;;;21.90;1.00;;;;;;4921489;29;20095;-41
2023/08/04 09:58:41;;;;;;;2.63;0.43;;;21.90;1.00;;;;;;4920656;29;20055;-44
2023/08/04 10:01:08;;;;;;;1.45;0.50;;;21.90;1.00;;;;;;4921178;29;20044;-41
2023/08/04 10:03:39;;;;;;;0.93;0.50;;;21.90;1.00;;;;;;4909627;29;20048;-41
2023/08/04 10:06:07;;;;;;;0.70;0.32;;;21.90;1.00;;;;;;4909950;29;20135;-42
2023/08/04 10:08:42;;;;;;;1.33;0.55;;;21.90;1.00;;;;;;4910739;29;20052;-41
2023/08/04 10:11:09;;;;;;;2.92;1.15;;;21.90;1.00;;;;;;4926587;29;20070;-41
2023/08/04 10:13:43;;;;;;;1.42;0.90;;;21.90;1.00;;;;;;4924471;29;20055;-41
2023/08/04 10:16:13;;;;;;;3.88;1.40;;;21.90;1.00;;;;;;4922072;29;20083;-41
2023/08/04 10:18:46;;;;;;;1.98;1.08;;;21.90;1.00;;;;;;4898444;29;20147;-45
2023/08/04 10:21:13;;;;;;;;;;;21.90;1.00;;;;;;4914940;29;20073;-43
2023/08/04 10:23:43;;;;;;;1.98;0.75;;;21.90;1.00;;;;;;4923758;29;19927;-42
2023/08/04 10:26:13;;;;;;;1.92;0.70;;;21.90;1.00;;;;;;4924822;29;20048;-43
2023/08/04 10:29:09;;;;;;;2.05;0.45;;;21.90;1.00;;;;;;4924474;29;20044;-45
2023/08/04 10:31:48;;;;;;;2.97;0.77;;;22.00;1.00;;;;;;4916881;29;20040;-43
2023/08/04 10:34:29;;;;;;;2.67;0.80;;;22.00;1.00;;;;;;4923498;29;20071;-41
2023/08/04 10:37:00;;;;;;;3.50;0.80;;;22.00;1.00;;;;;;4924898;29;20047;-41
2023/08/04 10:39:37;;;;;;;1.75;0.90;;;22.00;1.00;;;;;;4922939;29;20044;-42
2023/08/04 10:42:28;;;;;;;2.88;0.65;;;22.00;1.00;;;;;;4918702;29;20058;-40
2023/08/04 10:45:03;;;;;;;2.50;0.60;;;22.00;1.00;;;;;;4917083;29;20044;-43
2023/08/04 10:47:43;;;;;;;4.57;0.55;;;22.00;1.00;;;;;;4924109;29;20076;-41
2023/08/04 10:50:30;;;;;;;3.03;0.85;;;22.00;1.00;;;;;;4922947;29;20048;-43
2023/08/04 10:52:57;;;;;;;4.50;0.70;;;22.10;1.00;;;;;;4900129;29;20052;-44
2023/08/04 10:55:26;;;;;;;5.40;0.77;;;22.10;1.00;;;;;;4915641;29;20073;-40
2023/08/04 10:57:53;;;;;;;2.83;0.57;;;22.10;1.00;;;;;;4915954;29;20040;-46
2023/08/04 11:00:20;;;;;;;3.33;0.70;;;22.10;1.00;;;;;;4917191;29;20409;-42
2023/08/04 11:02:47;;;;;;;1.92;0.60;;;22.10;1.00;;;;;;4923981;29;20127;-41
2023/08/04 11:05:13;;;;;;;2.33;0.88;;;22.10;1.00;;;;;;4923763;29;20052;-41
2023/08/04 11:07:47;;;;;;;1.80;0.77;;;22.10;1.00;;;;;;4907632;29;20051;-41
2023/08/04 11:10:15;;;;;;;1.33;0.50;;;22.10;1.00;;;;;;4923676;29;20096;-41
2023/08/04 11:12:42;;;;;;;2.35;0.65;;;22.10;1.00;;;;;;4924280;29;20039;-43
2023/08/04 11:15:10;;;;;;;1.55;0.68;;;22.10;1.00;;;;;;4924150;29;20108;-41
2023/08/04 11:17:39;;;;;;;1.60;0.57;;;22.20;1.00;;;;;;4923297;29;20072;-43
2023/08/04 11:20:11;;;;;;;1.65;0.55;;;22.10;1.00;;;;;;4924768;29;20103;-43
2023/08/04 11:23:00;;;;;;;1.77;0.98;;;22.20;1.00;;;;;;4915822;29;20107;-41
2023/08/04 11:25:27;;;;;;;1.33;0.85;;;22.20;1.00;;;;;;4923615;29;20485;-46
2023/08/04 11:27:54;;;;;;;1.15;0.70;;;22.20;1.00;;;;;;4903141;29;20481;-41
2023/08/04 11:30:21;;;;;;;4.95;1.15;;;22.20;1.00;;;;;;4912290;29;20041;-44
2023/08/04 11:32:51;;;;;;;1.38;0.60;;;22.20;1.00;;;;;;4922237;29;20118;-42
2023/08/04 11:35:19;;;;;;;1.52;0.80;;;22.20;1.00;;;;;;4916554;29;20477;-41
2023/08/04 11:37:46;;;;;;;6.28;1.13;;;22.20;1.00;;;;;;4914738;29;20044;-47
2023/08/04 11:40:24;;;;;;;1.63;0.80;;;22.20;1.00;;;;;;4922252;29;20055;-43
2023/08/04 11:42:52;;;;;;;2.58;0.82;;;22.20;1.00;;;;;;4916004;29;20048;-44
2023/08/04 11:45:19;;;;;;;2.35;0.90;;;22.20;1.00;;;;;;4921919;29;20036;-41
2023/08/04 11:47:46;;;;;;;3.67;0.60;;;22.20;1.00;;;;;;4900088;29;20048;-42
2023/08/04 11:50:16;;;;;;;1.15;0.50;;;22.20;1.00;;;;;;4916500;29;20095;-46
2023/08/04 11:52:46;;;;;;;1.77;0.60;;;22.20;1.00;;;;;;4915097;29;20048;-41
2023/08/04 11:55:13;;;;;;;1.77;0.50;;;22.20;1.00;;;;;;4914437;29;20048;-41
2023/08/04 11:57:53;;;;;;;3.15;0.80;;;22.20;1.00;;;;;;4897853;29;20063;-43
2023/08/04 12:00:37;;;;;;;1.23;0.32;;;22.30;1.00;;;;;;4915038;29;20387;-41
2023/08/04 12:03:04;;;;;;;1.83;0.57;;;22.30;1.00;;;;;;4895061;29;20400;-44
2023/08/04 12:05:35;;;;;;;2.83;0.60;;;22.30;1.00;;;;;;4923461;29;20381;-44
2023/08/04 12:08:11;;;;;;;1.67;0.45;;;22.30;1.00;;;;;;4917244;29;20044;-43
2023/08/04 12:10:39;;;;;;;1.38;0.95;;;22.30;1.00;;;;;;4925416;29;20052;-41
2023/08/04 12:13:06;;;;;;;3.97;0.50;;;22.30;1.00;;;;;;4910081;29;20040;-42
2023/08/04 12:15:52;;;;;;;2.35;0.75;;;22.30;1.00;;;;;;4925225;29;20103;-43
2023/08/04 12:18:26;;;;;;;0.73;0.30;;;22.30;1.00;;;;;;4921867;29;20083;-45
2023/08/04 12:20:53;;;;;;;2.38;0.57;;;22.30;1.00;;;;;;4899834;29;20054;-41
2023/08/04 12:23:20;;;;;;;0.98;0.40;;;22.30;1.00;;;;;;4919623;29;20080;-42
2023/08/04 12:25:47;;;;;;;0.57;0.28;;;22.30;1.00;;;;;;4901694;29;20048;-41
2023/08/04 12:28:14;;;;;;;2.22;0.90;;;22.30;1.00;;;;;;4920117;29;20048;-41
2023/08/04 12:30:41;;;;;;;1.50;0.60;;;22.30;1.00;;;;;;4918949;29;20058;-41
2023/08/04 12:33:08;;;;;;;1.60;0.60;;;22.40;1.00;;;;;;4894873;29;20131;-42
2023/08/04 12:35:35;;;;;;;1.55;0.57;;;22.40;1.00;;;;;;4928136;29;20055;-43
2023/08/04 12:38:04;;;;;;;2.42;0.47;;;22.40;1.00;;;;;;4928224;29;20385;-44
2023/08/04 12:40:31;;;;;;;3.45;0.82;;;22.40;1.00;;;;;;4920222;29;20048;-41
2023/08/04 12:42:58;;;;;;;2.47;0.70;;;22.40;1.00;;;;;;4890042;29;20119;-41
2023/08/04 12:45:25;;;;;;;2.85;0.50;;;22.40;1.00;;;;;;4918854;29;20099;-42
2023/08/04 12:47:52;;;;;;;3.50;1.25;;;22.40;1.00;;;;;;4918049;29;20399;-42
2023/08/04 12:50:19;;;;;;;3.70;0.50;;;22.40;1.00;;;;;;4906288;29;20055;-45
2023/08/04 12:52:46;;;;;;;1.67;0.90;;;22.40;1.00;;;;;;4905239;29;20084;-41
2023/08/04 12:55:13;;;;;;;3.05;0.90;;;22.40;1.00;;;;;;4914970;29;20044;-41
2023/08/04 12:57:40;;;;;;;1.55;0.63;;;22.40;1.00;;;;;;4906123;29;20036;-40
2023/08/04 13:00:08;;;;;;;2.95;1.35;;;22.40;1.00;;;;;;4915278;29;20179;-44
2023/08/04 13:02:34;;;;;;;2.47;0.60;;;22.40;1.00;;;;;;4923287;29;20122;-41
2023/08/04 13:05:03;;;;;;;1.80;0.57;;;22.40;1.00;;;;;;4919612;29;20045;-44